Time;durP1;ratioP1;P1;durP2;ratioP2;P2;SDS_P1;SDS_P2;PMS_P1;PMS_P2;Temp;Humidity;BMP_temperature;BMP_pressure;BME280_temperature;BME280_humidity;BME280_pressure;Samples;Min_cycle;Max_cycle;Signal;HPM_P1;HPM_P2
2021/07/01 00:02:16;;;;;;;;;;;;;;;27.31;37.62;99515.00;4472629;31;809971;-86
2021/07/01 00:05:05;;;;;;;;;;;;;;;27.37;37.55;99508.19;4471639;31;798114;-83
2021/07/01 00:07:49;;;;;;;;;;;;;;;27.76;36.67;99501.41;4472511;31;811979;-87
2021/07/01 00:20:58;;;;;;;;;;;;;;;27.47;37.51;99542.84;4474393;31;787615;-85
2021/07/01 00:23:46;;;;;;;;;;;;;;;27.29;37.54;99534.88;4472991;32;794624;-86
2021/07/01 00:26:40;;;;;;;;;;;;;;;27.22;37.63;99545.38;4521736;31;744092;-84
2021/07/01 00:39:48;;;;;;;;;;;;;;;26.65;38.90;99541.31;4489083;31;782967;-86
2021/07/01 00:42:34;;;;;;;;;;;;;;;27.43;37.31;99546.81;4471553;31;803116;-85
2021/07/01 00:45:22;;;;;;;;;;;;;;;26.96;38.26;99542.72;4471189;32;812302;-85
2021/07/01 00:48:11;;;;;;;;;;;;;;;26.88;38.21;99540.84;4472808;32;798764;-86
2021/07/01 00:50:57;;;;;;;;;;;;;;;27.41;37.10;99544.31;4472011;32;788334;-86
2021/07/01 00:53:42;;;;;;;;;;;;;;;26.92;37.91;99542.19;4474290;31;750381;-84
2021/07/01 00:56:27;;;;;;;;;;;;;;;26.89;37.74;99545.19;4472234;32;823370;-85
2021/07/01 00:59:08;;;;;;;;;;;;;;;27.40;37.04;99539.13;4457934;32;791700;-84
2021/07/01 01:01:57;;;;;;;;;;;;;;;27.06;37.51;99550.66;4453591;32;844436;-84
2021/07/01 01:04:47;;;;;;;;;;;;;;;26.44;38.60;99548.84;4518877;31;756939;-86
2021/07/01 01:07:36;;;;;;;;;;;;;;;26.52;38.63;99553.44;4483431;31;850032;-84
2021/07/01 01:10:24;;;;;;;;;;;;;;;27.04;37.61;99555.31;4474423;31;791655;-88
2021/07/01 01:13:06;;;;;;;;;;;;;;;26.75;38.06;99565.31;4469306;31;799548;-84
2021/07/01 01:15:56;;;;;;;;;;;;;;;27.21;37.19;99554.38;4470265;32;812643;-86
2021/07/01 01:29:07;;;;;;;;;;;;;;;27.31;36.97;99589.03;5331425;26;745128;-87
2021/07/01 01:31:49;;;;;;;;;;;;;;;27.33;36.90;99587.84;4469640;32;792624;-86
2021/07/01 01:34:41;;;;;;;;;;;;;;;27.22;37.21;99593.50;4505776;31;744963;-88
2021/07/01 01:37:33;;;;;;;;;;;;;;;27.01;37.49;99585.88;4504767;31;735513;-88
2021/07/01 01:40:19;;;;;;;;;;;;;;;26.89;37.73;99582.59;4485307;31;793097;-84
2021/07/01 01:53:24;;;;;;;;;;;;;;;27.10;36.99;99584.09;4486035;31;750654;-85
2021/07/01 01:56:12;;;;;;;;;;;;;;;26.59;38.56;99587.38;4470664;32;799688;-85
2021/07/01 01:58:54;;;;;;;;;;;;;;;26.61;40.27;99577.38;4455891;32;789123;-86
2021/07/01 02:01:43;;;;;;;;;;;;;;;26.57;41.49;99570.66;4457768;32;794899;-84
2021/07/01 02:04:37;;;;;;;;;;;;;;;26.14;43.08;99564.31;4470975;31;796943;-86
2021/07/01 02:07:27;;;;;;;;;;;;;;;26.43;41.99;99560.53;4511582;31;952019;-84
2021/07/01 02:10:24;;;;;;;;;;;;;;;26.29;42.30;99576.09;4469177;32;803405;-84
2021/07/01 02:13:53;;;;;;;;;;;;;;;26.12;42.74;99583.13;4471040;31;785579;-85
2021/07/01 02:16:45;;;;;;;;;;;;;;;26.13;43.13;99576.78;4517588;31;766313;-84
2021/07/01 02:19:33;;;;;;;;;;;;;;;25.84;43.70;99579.63;4471113;32;791589;-85
2021/07/01 02:22:18;;;;;;;;;;;;;;;26.63;40.65;99578.06;4470924;32;800272;-84
2021/07/01 02:25:03;;;;;;;;;;;;;;;26.60;41.07;99589.03;4470962;32;801110;-84
2021/07/01 02:27:51;;;;;;;;;;;;;;;26.48;40.94;99590.28;4470001;32;821436;-87
2021/07/01 02:30:43;;;;;;;;;;;;;;;26.70;40.29;99588.09;4504541;31;743610;-88
2021/07/01 02:33:28;;;;;;;;;;;;;;;26.22;41.49;99590.22;4471116;32;791593;-84
2021/07/01 02:36:16;;;;;;;;;;;;;;;26.08;41.64;99587.09;4470088;31;819265;-83
2021/07/01 02:39:13;;;;;;;;;;;;;;;26.54;39.95;99581.66;4517449;31;765839;-84
2021/07/01 02:52:20;;;;;;;;;;;;;;;26.59;39.84;99600.75;4486390;31;799242;-85
2021/07/01 02:55:06;;;;;;;;;;;;;;;26.70;39.40;99605.00;4471195;31;783314;-86
2021/07/01 02:57:49;;;;;;;;;;;;;;;27.20;38.13;99602.69;4470831;32;794990;-84
2021/07/01 03:00:36;;;;;;;;;;;;;;;26.46;39.41;99595.78;4463607;32;802214;-84
2021/07/01 03:03:31;;;;;;;;;;;;;;;26.93;38.88;99600.00;4464400;31;1740736;-88
2021/07/01 03:06:24;;;;;;;;;;;;;;;26.60;39.20;99601.56;4503023;31;881390;-88
2021/07/01 03:09:09;;;;;;;;;;;;;;;26.99;38.46;99602.06;4501766;31;813330;-84
2021/07/01 03:11:57;;;;;;;;;;;;;;;26.61;38.91;99606.75;4469988;32;820698;-84
2021/07/01 03:14:43;;;;;;;;;;;;;;;26.79;38.45;99600.56;4469104;31;797033;-86
2021/07/01 03:17:30;;;;;;;;;;;;;;;26.37;39.56;99619.91;4485004;31;790429;-87
2021/07/01 03:20:20;;;;;;;;;;;;;;;27.00;37.87;99618.94;4502452;31;795370;-87
2021/07/01 03:23:10;;;;;;;;;;;;;;;26.71;38.39;99621.84;4502500;31;786820;-86
2021/07/01 03:25:58;;;;;;;;;;;;;;;27.02;37.61;99619.63;4469216;32;800601;-87
2021/07/01 03:28:40;;;;;;;;;;;;;;;26.69;37.80;99621.19;4469458;31;799607;-84
2021/07/01 03:31:34;;;;;;;;;;;;;;;26.84;37.48;99616.97;4518024;31;749526;-85
2021/07/01 03:34:22;;;;;;;;;;;;;;;26.89;37.90;99622.69;4467016;31;910803;-86
2021/07/01 03:47:31;;;;;;;;;;;;;;;26.55;37.48;99625.22;4470940;32;791496;-86
2021/07/01 03:50:16;;;;;;;;;;;;;;;26.45;37.67;99633.34;4470641;31;745624;-85
2021/07/01 03:53:01;;;;;;;;;;;;;;;26.25;37.68;99628.13;4468697;32;817732;-86
2021/07/01 03:55:54;;;;;;;;;;;;;;;26.07;38.34;99636.13;4519661;31;736009;-86
2021/07/01 03:58:39;;;;;;;;;;;;;;;26.98;36.48;99629.78;4484325;31;817926;-86
2021/07/01 04:01:28;;;;;;;;;;;;;;;26.70;37.21;99638.88;4458799;32;819349;-85
2021/07/01 04:04:20;;;;;;;;;;;;;;;26.27;37.86;99636.00;4519130;31;761428;-85
2021/07/01 04:07:06;;;;;;;;;;;;;;;26.62;37.06;99632.50;4468062;32;842397;-84
2021/07/01 04:09:54;;;;;;;;;;;;;;;26.41;37.22;99632.78;4489096;31;792496;-88
2021/07/01 04:23:11;;;;;;;;;;;;;;;26.30;37.48;99636.53;5365780;26;743598;-85
2021/07/01 04:26:09;;;;;;;;;;;;;;;26.09;37.73;99641.34;4520700;31;736832;-89
2021/07/01 04:28:54;;;;;;;;;;;;;;;27.03;36.30;99639.16;4470484;32;805395;-86
2021/07/01 04:31:38;;;;;;;;;;;;;;;27.24;35.81;99630.78;4470514;32;804518;-86
2021/07/01 04:34:23;;;;;;;;;;;;;;;26.81;36.54;99638.69;4470824;32;788315;-85
2021/07/01 04:47:28;;;;;;;;;;;;;;;26.05;37.65;99640.78;4455115;32;756668;-84
2021/07/01 04:50:13;;;;;;;;;;;;;;;26.80;36.43;99653.88;4467015;31;842951;-86
2021/07/01 04:53:04;;;;;;;;;;;;;;;26.79;36.28;99652.19;4485523;31;806135;-84
2021/07/01 04:55:52;;;;;;;;;;;;;;;27.30;35.79;99648.88;4483804;31;821438;-86
2021/07/01 04:58:40;;;;;;;;;;;;;;;27.20;35.75;99648.97;4469684;31;844682;-87
2021/07/01 05:01:27;;;;;;;;;;;;;;;27.52;35.15;99644.00;4370569;31;3585265;-86
2021/07/01 05:14:33;;;;;;;;;;;;;;;27.34;33.99;99637.69;4469007;31;886875;-88
2021/07/01 05:42:55;;;;;;;;;;;;;;;28.02;31.47;99680.72;5361051;26;738974;-87
2021/07/01 05:55:57;;;;;;;;;;;;;;;28.94;30.03;99691.41;4472484;31;745882;-89
2021/07/01 06:09:10;;;;;;;;;;;;;;;28.01;31.47;99689.72;5358753;26;775349;-85
2021/07/01 06:22:37;;;;;;;;;;;;;;;28.76;30.25;99690.75;5388332;26;924978;-90
2021/07/01 06:36:01;;;;;;;;;;;;;;;27.84;31.93;99696.81;5286561;27;849077;-89
2021/07/01 06:49:12;;;;;;;;;;;;;;;29.56;29.42;99708.81;4469968;31;775273;-86
2021/07/01 07:02:40;;;;;;;;;;;;;;;29.38;30.03;99716.22;5224594;26;3608227;-86
2021/07/01 07:05:31;;;;;;;;;;;;;;;28.86;30.75;99722.78;4470142;31;793010;-86
2021/07/01 07:18:44;;;;;;;;;;;;;;;29.42;30.30;99728.28;5292636;26;877388;-89
2021/07/01 07:34:28;;;;;;;;;;;;;;;30.58;28.51;99721.50;5330878;26;866369;-89
2021/07/01 07:47:44;;;;;;;;;;;;;;;31.14;27.46;99733.87;4471007;31;752852;-87
2021/07/01 08:00:56;;;;;;;;;;;;;;;31.41;27.13;99745.06;4457925;32;764528;-89
2021/07/01 08:03:42;;;;;;;;;;;;;;;31.59;27.01;99733.94;4472110;31;796183;-88
2021/07/01 08:16:47;;;;;;;;;;;;;;;31.82;26.34;99744.66;4484482;31;866889;-89
2021/07/01 08:19:27;;;;;;;;;;;;;;;31.39;26.64;99744.41;4471308;31;808520;-89
2021/07/01 08:22:09;;;;;;;;;;;;;;;31.75;25.97;99754.50;4472769;32;787372;-87
2021/07/01 08:24:51;;;;;;;;;;;;;;;31.46;26.51;99753.44;4462672;32;1081872;-88
2021/07/01 08:38:13;;;;;;;;;;;;;;;30.95;27.40;99737.88;4468876;31;898839;-89
2021/07/01 08:51:26;;;;;;;;;;;;;;;31.06;26.75;99742.00;4473314;31;763027;-87
2021/07/01 08:54:25;;;;;;;;;;;;;;;30.30;27.53;99743.47;4505848;31;739051;-90
2021/07/01 08:57:10;;;;;;;;;;;;;;;30.56;26.80;99736.97;4470923;32;811257;-88
2021/07/01 09:00:10;;;;;;;;;;;;;;;31.76;24.96;99735.44;4517018;31;763935;-84
2021/07/01 09:03:03;;;;;;;;;;;;;;;31.48;25.05;99733.38;4468117;32;812437;-87
2021/07/01 09:05:54;;;;;;;;;;;;;;;32.03;24.16;99737.66;4466635;32;868439;-85
2021/07/01 09:08:41;;;;;;;;;;;;;;;32.67;23.33;99736.13;4452034;32;826688;-84
2021/07/01 09:11:29;;;;;;;;;;;;;;;32.59;23.37;99735.25;4470339;32;815772;-85
2021/07/01 09:14:15;;;;;;;;;;;;;;;32.12;23.53;99740.09;4467712;32;887532;-87
2021/07/01 09:17:11;;;;;;;;;;;;;;;32.69;22.28;99737.62;4517278;31;741978;-92
2021/07/01 09:19:56;;;;;;;;;;;;;;;32.37;22.66;99747.03;4468672;32;794282;-85
2021/07/01 09:22:49;;;;;;;;;;;;;;;32.69;22.34;99744.88;4518454;31;744132;-90
2021/07/01 09:25:33;;;;;;;;;;;;;;;32.57;23.20;99736.47;4469694;31;806587;-87
2021/07/01 09:38:45;;;;;;;;;;;;;;;33.90;20.43;99742.13;4466923;31;851034;-88
2021/07/01 09:41:35;;;;;;;;;;;;;;;33.94;20.62;99746.09;4470753;31;793474;-85
2021/07/01 09:45:17;;;;;;;;;;;;;;;33.94;20.22;99738.00;4470357;31;793220;-85
2021/07/01 09:58:29;;;;;;;;;;;;;;;34.14;19.27;99718.34;4483802;31;744767;-88
2021/07/01 10:01:23;;;;;;;;;;;;;;;34.14;19.38;99726.44;4490901;31;828284;-87
2021/07/01 10:03:53;;;;;;;;;;;;;;;34.14;19.38;99726.44;4497950;31;33858;-87
2021/07/01 10:06:48;;;;;;;;;;;;;;;34.41;19.54;99721.16;4517180;31;794990;-86
2021/07/01 10:09:55;;;;;;;;;;;;;;;34.66;19.39;99723.28;4480189;31;1579948;-91
2021/07/01 10:23:00;;;;;;;;;;;;;;;34.98;18.51;99731.69;4456432;32;793050;-91
2021/07/01 10:25:43;;;;;;;;;;;;;;;33.98;19.50;99735.75;4470135;32;790575;-87
2021/07/01 10:38:51;;;;;;;;;;;;;;;34.91;19.31;99732.50;4472196;31;857777;-90
2021/07/01 10:52:01;;;;;;;;;;;;;;;34.83;19.25;99723.75;4454548;32;850606;-88
2021/07/01 10:54:55;;;;;;;;;;;;;;;34.65;19.80;99719.75;4470978;31;759179;-87
2021/07/01 10:57:50;;;;;;;;;;;;;;;34.90;19.46;99720.03;4470619;32;811888;-88
2021/07/01 11:00:55;;;;;;;;;;;;;;;34.40;19.32;99716.81;4520743;31;771251;-90
2021/07/01 11:04:04;;;;;;;;;;;;;;;34.60;19.69;99719.53;4514676;31;822000;-89
2021/07/01 11:06:57;;;;;;;;;;;;;;;34.36;19.91;99720.91;4480632;31;909704;-88
2021/07/01 11:10:00;;;;;;;;;;;;;;;34.36;19.87;99719.06;4503739;31;763931;-90
2021/07/01 11:12:45;;;;;;;;;;;;;;;34.49;20.20;99712.88;4497721;31;923051;-87
2021/07/01 11:15:57;;;;;;;;;;;;;;;34.23;20.03;99719.81;4492833;31;1075900;-87
2021/07/01 11:18:51;;;;;;;;;;;;;;;34.54;18.96;99713.06;4501554;31;747843;-89
2021/07/01 11:21:49;;;;;;;;;;;;;;;35.38;18.45;99710.00;4516085;31;800620;-88
2021/07/01 11:24:37;;;;;;;;;;;;;;;35.02;19.16;99719.37;4467144;32;845924;-87
2021/07/01 11:27:33;;;;;;;;;;;;;;;34.56;19.74;99711.00;4506305;31;737876;-92
2021/07/01 11:30:26;;;;;;;;;;;;;;;33.81;20.28;99713.63;4505546;31;744226;-91
2021/07/01 11:43:38;;;;;;;;;;;;;;;34.95;19.12;99717.50;4472191;31;784490;-86
2021/07/01 11:56:55;;;;;;;;;;;;;;;35.71;17.83;99730.78;4484806;31;816877;-85
2021/07/01 11:59:36;;;;;;;;;;;;;;;34.19;19.21;99723.97;4457359;32;789533;-86
2021/07/01 12:02:24;;;;;;;;;;;;;;;34.18;19.35;99722.31;4488053;31;818991;-88
2021/07/01 12:05:10;;;;;;;;;;;;;;;34.53;18.86;99719.53;4471956;31;826676;-87
2021/07/01 12:08:02;;;;;;;;;;;;;;;34.87;18.32;99712.31;4519052;31;823985;-87
2021/07/01 12:10:57;;;;;;;;;;;;;;;35.56;18.16;99712.88;4472723;31;784012;-87
2021/07/01 12:13:50;;;;;;;;;;;;;;;35.87;17.90;99711.34;4469524;31;941852;-87
2021/07/01 12:16:39;;;;;;;;;;;;;;;35.49;18.17;99711.22;4520846;31;745272;-84
2021/07/01 12:19:45;;;;;;;;;;;;;;;35.36;18.29;99706.69;4505363;31;800730;-85
2021/07/01 12:22:43;;;;;;;;;;;;;;;36.50;17.40;99707.12;4468260;31;838677;-88
2021/07/01 12:36:01;;;;;;;;;;;;;;;35.14;17.30;99701.47;5360455;26;745215;-86
2021/07/01 12:39:06;;;;;;;;;;;;;;;34.63;17.65;99700.19;4517736;31;769964;-85
2021/07/01 12:52:15;;;;;;;;;;;;;;;34.36;18.78;99685.78;5350570;26;878532;-85
2021/07/01 12:55:07;;;;;;;;;;;;;;;34.01;18.98;99691.25;4474928;31;1113582;-87
2021/07/01 13:08:16;;;;;;;;;;;;;;;34.17;19.20;99676.56;5245311;26;3667341;-87
2021/07/01 13:11:44;;;;;;;;;;;;;;;34.91;18.45;99683.78;4478560;31;880570;-87
2021/07/01 13:14:29;;;;;;;;;;;;;;;35.16;18.27;99693.97;4477498;31;791041;-89
2021/07/01 13:27:57;;;;;;;;;;;;;;;36.10;17.44;99693.78;5314682;26;779247;-85
2021/07/01 13:41:16;;;;;;;;;;;;;;;37.15;16.51;99686.16;5378194;26;738042;-89
2021/07/01 13:44:09;;;;;;;;;;;;;;;36.78;16.76;99682.28;4470306;32;793092;-84
2021/07/01 13:47:02;;;;;;;;;;;;;;;37.21;16.56;99686.09;4535725;31;745247;-90
2021/07/01 13:49:44;;;;;;;;;;;;;;;37.10;16.61;99690.38;4468612;32;815215;-87
2021/07/01 13:52:30;;;;;;;;;;;;;;;37.04;16.44;99693.16;4485735;31;831161;-87
2021/07/01 13:55:29;;;;;;;;;;;;;;;37.28;16.30;99683.31;4498740;31;920565;-86
2021/07/01 13:58:18;;;;;;;;;;;;;;;38.10;15.76;99669.41;4484237;31;819835;-88
2021/07/01 14:01:11;;;;;;;;;;;;;;;38.08;15.67;99674.28;4504056;31;848535;-87
2021/07/01 14:03:57;;;;;;;;;;;;;;;38.04;15.63;99669.50;4484028;31;797513;-85
2021/07/01 14:17:00;;;;;;;;;;;;;;;36.52;16.88;99682.47;4485975;31;743590;-86
2021/07/01 14:19:48;;;;;;;;;;;;;;;37.60;15.69;99678.63;4470624;31;794200;-83
2021/07/01 14:22:38;;;;;;;;;;;;;;;37.31;15.61;99676.62;4483972;31;822429;-85
2021/07/01 14:25:27;;;;;;;;;;;;;;;37.25;15.32;99681.06;4468569;32;795285;-84
2021/07/01 14:28:11;;;;;;;;;;;;;;;37.16;15.25;99676.97;4468342;32;793246;-85
2021/07/01 14:30:59;;;;;;;;;;;;;;;37.24;15.49;99677.50;4468940;31;789513;-87
2021/07/01 14:33:43;;;;;;;;;;;;;;;36.97;15.70;99681.53;4468974;31;799514;-86
2021/07/01 14:36:30;;;;;;;;;;;;;;;36.27;16.53;99685.94;4468045;31;816337;-85
2021/07/01 14:39:12;;;;;;;;;;;;;;;36.27;16.53;99675.09;4469733;32;798400;-84
2021/07/01 14:42:02;;;;;;;;;;;;;;;36.78;16.19;99681.44;4469329;31;827957;-84
2021/07/01 14:44:48;;;;;;;;;;;;;;;35.61;17.05;99704.97;4483611;31;804784;-86
2021/07/01 14:47:28;;;;;;;;;;;;;;;35.70;16.82;99696.59;4468233;32;799091;-87
2021/07/01 14:50:22;;;;;;;;;;;;;;;36.08;16.61;99687.72;4501540;31;745575;-85
2021/07/01 14:53:03;;;;;;;;;;;;;;;35.84;16.91;99692.00;4485080;31;793000;-85
2021/07/01 14:55:49;;;;;;;;;;;;;;;36.58;16.29;99697.88;4470642;31;792224;-84
2021/07/01 14:58:46;;;;;;;;;;;;;;;35.88;16.96;99698.66;4468425;32;808517;-85
2021/07/01 15:01:30;;;;;;;;;;;;;;;35.77;17.16;99702.84;4458603;32;799529;-85
2021/07/01 15:04:12;;;;;;;;;;;;;;;35.02;18.08;99711.25;4468869;32;837100;-87
2021/07/01 15:07:02;;;;;;;;;;;;;;;36.06;17.17;99696.06;4469000;31;787899;-86
2021/07/01 15:10:08;;;;;;;;;;;;;;;36.17;17.19;99704.56;4465350;32;904689;-84
2021/07/01 15:13:03;;;;;;;;;;;;;;;36.05;17.30;99704.44;4468806;32;792705;-85
2021/07/01 15:15:53;;;;;;;;;;;;;;;35.76;17.51;99698.47;4487253;31;745034;-84
2021/07/01 15:18:34;;;;;;;;;;;;;;;35.86;17.58;99688.03;4472141;31;795299;-85
2021/07/01 15:21:18;;;;;;;;;;;;;;;36.21;16.87;99695.78;4470113;32;799625;-85
2021/07/01 15:24:02;;;;;;;;;;;;;;;36.43;16.74;99706.31;4469106;32;795826;-85
2021/07/01 15:26:47;;;;;;;;;;;;;;;37.21;16.12;99702.38;4469773;31;817402;-84
2021/07/01 15:29:33;;;;;;;;;;;;;;;35.97;17.33;99691.94;4468979;31;796471;-85
2021/07/01 15:32:19;;;;;;;;;;;;;;;35.94;17.15;99693.22;4470183;32;800106;-83
2021/07/01 15:35:00;;;;;;;;;;;;;;;36.00;16.96;99690.69;4468864;31;843699;-83
2021/07/01 15:37:40;;;;;;;;;;;;;;;35.64;17.23;99695.56;4469212;31;790918;-85
2021/07/01 15:40:30;;;;;;;;;;;;;;;36.66;16.34;99691.34;4468253;32;820085;-86
2021/07/01 15:43:13;;;;;;;;;;;;;;;36.09;16.97;99689.37;4468884;32;796629;-85
2021/07/01 15:46:00;;;;;;;;;;;;;;;36.59;16.28;99688.69;4487297;31;804812;-90
2021/07/01 15:48:42;;;;;;;;;;;;;;;35.72;17.12;99686.38;4470469;32;795465;-86
2021/07/01 15:51:25;;;;;;;;;;;;;;;36.53;16.60;99697.72;4501776;31;803538;-85
2021/07/01 15:54:09;;;;;;;;;;;;;;;35.70;17.45;99694.72;4502074;31;794042;-84
2021/07/01 15:56:55;;;;;;;;;;;;;;;35.69;17.35;99697.66;4467230;31;849243;-88
2021/07/01 15:59:36;;;;;;;;;;;;;;;35.90;16.91;99689.25;4501436;31;810285;-86
2021/07/01 16:02:20;;;;;;;;;;;;;;;35.18;17.69;99694.63;4468994;32;798529;-87
2021/07/01 16:15:23;;;;;;;;;;;;;;;35.43;17.76;99700.22;4470315;31;764748;-85
2021/07/01 16:18:06;;;;;;;;;;;;;;;35.49;17.83;99708.53;4472151;31;789441;-87
2021/07/01 16:20:47;;;;;;;;;;;;;;;35.51;17.65;99703.75;4467632;31;830023;-85
2021/07/01 16:23:33;;;;;;;;;;;;;;;35.46;17.71;99696.25;4470795;31;810801;-87
2021/07/01 16:26:14;;;;;;;;;;;;;;;35.20;18.01;99692.50;4469890;31;809238;-85
2021/07/01 16:29:03;;;;;;;;;;;;;;;35.33;17.80;99696.22;4471184;31;800013;-84
2021/07/01 16:31:56;;;;;;;;;;;;;;;35.64;17.59;99702.88;4508974;31;741237;-89
2021/07/01 16:34:41;;;;;;;;;;;;;;;35.84;17.35;99697.41;4469202;32;806072;-85
2021/07/01 16:37:25;;;;;;;;;;;;;;;35.08;18.29;99705.84;4471468;32;796619;-88
2021/07/01 16:40:10;;;;;;;;;;;;;;;35.09;17.43;99706.69;4469113;32;800693;-83
2021/07/01 16:42:50;;;;;;;;;;;;;;;35.03;17.73;99708.34;4469232;31;800764;-86
2021/07/01 16:45:35;;;;;;;;;;;;;;;34.99;17.64;99717.09;4467773;32;815929;-85
2021/07/01 16:48:19;;;;;;;;;;;;;;;34.90;17.83;99719.19;4468103;31;801583;-85
2021/07/01 16:51:08;;;;;;;;;;;;;;;35.07;17.82;99720.41;4469412;31;752790;-84
2021/07/01 16:53:51;;;;;;;;;;;;;;;34.90;18.00;99722.72;4469481;32;796080;-85
2021/07/01 16:56:49;;;;;;;;;;;;;;;35.26;17.68;99728.75;4469487;31;796121;-87
2021/07/01 16:59:37;;;;;;;;;;;;;;;35.12;17.81;99727.94;4496227;31;947459;-87
2021/07/01 17:12:45;;;;;;;;;;;;;;;34.61;18.18;99727.44;4439068;32;793689;-87
2021/07/01 17:15:31;;;;;;;;;;;;;;;34.94;17.93;99729.41;4482897;31;823676;-85
2021/07/01 17:18:16;;;;;;;;;;;;;;;34.70;18.10;99732.66;4454405;32;788652;-84
2021/07/01 17:21:04;;;;;;;;;;;;;;;34.75;18.15;99743.69;4470208;32;801017;-84
2021/07/01 17:23:48;;;;;;;;;;;;;;;34.60;18.09;99752.00;4466938;31;860634;-87
2021/07/01 17:26:36;;;;;;;;;;;;;;;34.58;18.15;99748.66;4468819;31;801761;-84
2021/07/01 17:29:24;;;;;;;;;;;;;;;35.08;17.80;99754.56;4483719;31;798964;-86
2021/07/01 17:32:10;;;;;;;;;;;;;;;34.83;18.10;99757.06;4468734;31;815922;-87
2021/07/01 17:35:00;;;;;;;;;;;;;;;34.17;18.69;99758.50;4468809;32;802266;-87
2021/07/01 17:37:43;;;;;;;;;;;;;;;34.19;18.92;99761.00;4468437;32;812251;-86
2021/07/01 17:40:30;;;;;;;;;;;;;;;34.60;18.75;99763.66;4422053;32;797207;-84
2021/07/01 17:43:18;;;;;;;;;;;;;;;34.03;19.05;99776.50;4468259;32;809030;-86
2021/07/01 17:46:03;;;;;;;;;;;;;;;34.43;18.82;99775.88;4391455;32;809604;-85
2021/07/01 17:48:55;;;;;;;;;;;;;;;34.30;18.88;99773.91;4468747;31;806051;-85
2021/07/01 18:02:00;;;;;;;;;;;;;;;34.35;19.22;99774.19;4453985;32;787453;-85
2021/07/01 18:04:45;;;;;;;;;;;;;;;34.52;19.03;99777.38;4468500;31;811727;-85
2021/07/01 18:07:38;;;;;;;;;;;;;;;34.39;19.23;99774.63;4486542;31;767560;-87
2021/07/01 18:10:28;;;;;;;;;;;;;;;34.49;19.32;99785.91;4485205;31;1777008;-87
2021/07/01 18:13:19;;;;;;;;;;;;;;;34.61;19.15;99786.97;4517154;31;761354;-87
2021/07/01 18:16:09;;;;;;;;;;;;;;;34.46;19.33;99780.87;4516975;31;767797;-87
2021/07/01 18:18:55;;;;;;;;;;;;;;;34.09;19.75;99788.37;4469042;31;837135;-85
2021/07/01 18:21:39;;;;;;;;;;;;;;;33.26;20.58;99794.47;4467661;31;838730;-85
2021/07/01 18:24:26;;;;;;;;;;;;;;;33.46;20.60;99790.03;4470118;31;809416;-85
2021/07/01 18:37:35;;;;;;;;;;;;;;;33.72;20.37;99804.78;4468168;31;814038;-84
2021/07/01 18:40:26;;;;;;;;;;;;;;;33.52;20.49;99801.09;4467095;32;855556;-85
2021/07/01 18:43:11;;;;;;;;;;;;;;;33.65;20.42;99795.78;4467266;32;844560;-87
2021/07/01 18:46:10;;;;;;;;;;;;;;;33.89;20.23;99794.53;4469588;31;774314;-87
2021/07/01 18:48:57;;;;;;;;;;;;;;;33.69;20.52;99804.34;4455972;32;793550;-85
2021/07/01 18:51:47;;;;;;;;;;;;;;;33.42;20.65;99802.28;4484121;31;810045;-84
2021/07/01 18:54:40;;;;;;;;;;;;;;;33.14;21.04;99800.34;4518746;31;750953;-86
2021/07/01 18:57:25;;;;;;;;;;;;;;;32.85;21.51;99812.09;4468466;32;810897;-86
2021/07/01 19:00:10;;;;;;;;;;;;;;;33.79;20.74;99805.69;4465809;31;812373;-87
2021/07/01 19:02:56;;;;;;;;;;;;;;;33.14;21.42;99808.44;4467275;31;852489;-87
2021/07/01 19:05:48;;;;;;;;;;;;;;;32.87;21.90;99806.50;4484171;31;807864;-87
2021/07/01 19:08:35;;;;;;;;;;;;;;;32.93;21.90;99813.84;4482573;31;847019;-85
2021/07/01 19:11:27;;;;;;;;;;;;;;;33.08;21.69;99802.97;4464649;32;913801;-86
2021/07/01 19:14:11;;;;;;;;;;;;;;;33.43;21.55;99795.84;4467935;31;803675;-84
2021/07/01 19:17:06;;;;;;;;;;;;;;;32.96;22.18;99810.75;4483546;31;808690;-86
2021/07/01 19:19:56;;;;;;;;;;;;;;;32.60;22.56;99807.03;4517359;31;763840;-87
2021/07/01 19:22:41;;;;;;;;;;;;;;;32.61;22.90;99819.47;4469197;32;814553;-85
2021/07/01 19:25:27;;;;;;;;;;;;;;;32.92;22.45;99821.09;4469804;31;811453;-85
2021/07/01 19:28:10;;;;;;;;;;;;;;;32.72;22.68;99823.59;4466823;31;858705;-86
2021/07/01 19:30:58;;;;;;;;;;;;;;;32.91;22.38;99830.22;4468529;32;791533;-87
2021/07/01 19:33:43;;;;;;;;;;;;;;;32.63;22.76;99820.13;4467355;31;826640;-87
2021/07/01 19:36:32;;;;;;;;;;;;;;;32.46;23.08;99822.22;4483787;31;805201;-87
2021/07/01 19:39:22;;;;;;;;;;;;;;;32.14;23.65;99823.44;4468202;32;799480;-88
2021/07/01 19:42:11;;;;;;;;;;;;;;;31.87;24.10;99825.75;4467733;32;810483;-85
2021/07/01 19:44:57;;;;;;;;;;;;;;;31.66;24.23;99821.09;4467808;31;812752;-86
2021/07/01 19:47:42;;;;;;;;;;;;;;;31.67;24.55;99832.69;4420550;32;828261;-85
2021/07/01 19:50:30;;;;;;;;;;;;;;;31.48;24.82;99832.13;4452687;32;792825;-84
2021/07/01 20:03:40;;;;;;;;;;;;;;;30.43;26.21;99833.44;5336310;26;775252;-91
2021/07/01 20:06:24;;;;;;;;;;;;;;;30.92;25.45;99827.00;4441331;32;812909;-88
2021/07/01 20:19:36;;;;;;;;;;;;;;;29.68;27.69;99858.75;5364167;26;743620;-89
2021/07/01 20:22:20;;;;;;;;;;;;;;;29.71;27.72;99856.59;4469833;32;844682;-84
2021/07/01 20:25:11;;;;;;;;;;;;;;;29.90;27.44;99855.44;4472469;31;767479;-87
2021/07/01 20:27:57;;;;;;;;;;;;;;;29.80;27.63;99860.12;4470890;32;819475;-88
2021/07/01 20:30:51;;;;;;;;;;;;;;;30.26;27.13;99856.84;4471304;31;796470;-84
2021/07/01 20:33:47;;;;;;;;;;;;;;;30.73;26.73;99847.13;4504842;31;739140;-91
2021/07/01 20:36:28;;;;;;;;;;;;;;;30.55;27.05;99848.19;4470903;31;817412;-87
2021/07/01 20:39:15;;;;;;;;;;;;;;;29.94;28.08;99859.47;4487187;31;810868;-87
2021/07/01 20:42:08;;;;;;;;;;;;;;;30.14;27.81;99856.37;4456361;32;788768;-86
2021/07/01 20:44:53;;;;;;;;;;;;;;;29.99;27.84;99858.94;4473117;31;800041;-86
2021/07/01 20:47:41;;;;;;;;;;;;;;;30.38;27.38;99854.63;4469387;32;853017;-87
2021/07/01 20:50:28;;;;;;;;;;;;;;;30.07;28.19;99863.44;4471930;32;802901;-86
2021/07/01 20:53:22;;;;;;;;;;;;;;;30.30;27.95;99867.09;4470902;32;793684;-86
2021/07/01 20:56:07;;;;;;;;;;;;;;;29.12;29.98;99867.44;4472166;32;799192;-87
2021/07/01 20:58:56;;;;;;;;;;;;;;;29.83;28.89;99871.34;4483487;31;896024;-85
2021/07/01 21:01:43;;;;;;;;;;;;;;;30.20;28.52;99869.13;4453830;32;855659;-86
2021/07/01 21:04:35;;;;;;;;;;;;;;;30.30;28.43;99867.09;4482279;31;843263;-83
2021/07/01 21:07:36;;;;;;;;;;;;;;;30.62;28.61;99862.63;4517529;31;764014;-83
2021/07/01 21:10:27;;;;;;;;;;;;;;;30.69;28.96;99867.28;4468046;32;810996;-86
2021/07/01 21:13:14;;;;;;;;;;;;;;;28.76;32.76;99865.84;4469003;32;800787;-85
2021/07/01 21:15:59;;;;;;;;;;;;;;;29.63;31.46;99873.53;4468428;32;808977;-86
2021/07/01 21:18:51;;;;;;;;;;;;;;;29.63;31.56;99872.72;4464378;31;937672;-85
2021/07/01 21:21:42;;;;;;;;;;;;;;;30.04;31.29;99872.69;4467437;32;849664;-87
2021/07/01 21:24:34;;;;;;;;;;;;;;;29.75;31.60;99876.72;4470352;31;797198;-87
2021/07/01 21:27:22;;;;;;;;;;;;;;;29.48;33.22;99885.97;4469202;32;794146;-87
2021/07/01 21:30:10;;;;;;;;;;;;;;;29.60;33.57;99881.09;4467037;31;852999;-86
2021/07/01 21:33:03;;;;;;;;;;;;;;;29.69;35.74;99876.56;4514177;31;848766;-85
2021/07/01 21:35:54;;;;;;;;;;;;;;;29.64;35.11;99880.59;4459556;32;1100458;-85
2021/07/01 21:38:40;;;;;;;;;;;;;;;29.60;34.80;99878.41;4483308;31;850477;-87
2021/07/01 21:41:28;;;;;;;;;;;;;;;29.69;33.80;99871.19;4468708;32;801859;-86
2021/07/01 21:44:24;;;;;;;;;;;;;;;29.71;33.80;99869.19;4467006;32;865739;-87
2021/07/01 21:47:13;;;;;;;;;;;;;;;29.58;33.63;99862.47;4468078;31;825154;-85
2021/07/01 21:50:06;;;;;;;;;;;;;;;29.62;33.71;99863.81;4501155;31;820431;-86
2021/07/01 21:52:50;;;;;;;;;;;;;;;29.10;35.03;99864.09;4469664;32;808625;-84
2021/07/01 21:55:37;;;;;;;;;;;;;;;29.19;35.70;99857.72;4468342;31;795106;-85
2021/07/01 21:58:28;;;;;;;;;;;;;;;29.74;34.93;99858.09;4469147;31;803744;-86
2021/07/01 22:01:21;;;;;;;;;;;;;;;29.79;34.93;99859.25;4441500;32;825057;-87